sensor_id;sensor_type;location;lat;lon;timestamp;temperature;humidity
7000;DHT22;3540;53.242;10.408;2023-07-31T00:00:11;13.50;99.90
7000;DHT22;3540;53.242;10.408;2023-07-31T00:02:38;13.40;99.90
7000;DHT22;3540;53.242;10.408;2023-07-31T00:05:04;13.40;99.90
7000;DHT22;3540;53.242;10.408;2023-07-31T00:07:31;13.40;99.90
7000;DHT22;3540;53.242;10.408;2023-07-31T00:09:57;13.40;99.90
7000;DHT22;3540;53.242;10.408;2023-07-31T00:12:23;13.50;99.90
7000;DHT22;3540;53.242;10.408;2023-07-31T00:14:49;13.50;99.90
7000;DHT22;3540;53.242;10.408;2023-07-31T00:17:16;13.50;99.90
7000;DHT22;3540;53.242;10.408;2023-07-31T00:19:42;13.50;99.90
7000;DHT22;3540;53.242;10.408;2023-07-31T00:22:07;13.50;99.90
7000;DHT22;3540;53.242;10.408;2023-07-31T00:24:33;13.60;99.90
7000;DHT22;3540;53.242;10.408;2023-07-31T00:26:59;13.60;99.90
7000;DHT22;3540;53.242;10.408;2023-07-31T00:29:24;13.60;99.90
7000;DHT22;3540;53.242;10.408;2023-07-31T00:31:50;13.60;99.90
7000;DHT22;3540;53.242;10.408;2023-07-31T00:34:16;13.60;99.90
7000;DHT22;3540;53.242;10.408;2023-07-31T00:36:41;13.70;99.90
7000;DHT22;3540;53.242;10.408;2023-07-31T00:39:07;13.70;99.90
7000;DHT22;3540;53.242;10.408;2023-07-31T00:41:33;13.80;99.90
7000;DHT22;3540;53.242;10.408;2023-07-31T00:43:58;13.80;99.90
7000;DHT22;3540;53.242;10.408;2023-07-31T00:46:24;13.80;99.90
7000;DHT22;3540;53.242;10.408;2023-07-31T00:48:50;13.90;99.90
7000;DHT22;3540;53.242;10.408;2023-07-31T00:51:16;13.90;99.90
7000;DHT22;3540;53.242;10.408;2023-07-31T00:53:43;14.00;99.90
7000;DHT22;3540;53.242;10.408;2023-07-31T00:56:10;14.00;99.90
7000;DHT22;3540;53.242;10.408;2023-07-31T00:58:36;14.10;99.90
7000;DHT22;3540;53.242;10.408;2023-07-31T01:01:02;14.20;99.90
7000;DHT22;3540;53.242;10.408;2023-07-31T01:03:28;14.30;99.90
7000;DHT22;3540;53.242;10.408;2023-07-31T01:08:36;14.50;99.90
7000;DHT22;3540;53.242;10.408;2023-07-31T01:11:15;14.60;99.90
7000;DHT22;3540;53.242;10.408;2023-07-31T01:13:44;14.60;99.90
7000;DHT22;3540;53.242;10.408;2023-07-31T01:16:10;14.70;99.90
7000;DHT22;3540;53.242;10.408;2023-07-31T01:18:36;14.70;99.90
7000;DHT22;3540;53.242;10.408;2023-07-31T01:21:13;14.70;99.90
7000;DHT22;3540;53.242;10.408;2023-07-31T01:24:07;14.70;99.90
7000;DHT22;3540;53.242;10.408;2023-07-31T01:26:36;14.80;99.90
7000;DHT22;3540;53.242;10.408;2023-07-31T01:29:13;14.80;99.90
7000;DHT22;3540;53.242;10.408;2023-07-31T01:31:41;14.80;99.90
7000;DHT22;3540;53.242;10.408;2023-07-31T01:34:09;14.80;99.90
7000;DHT22;3540;53.242;10.408;2023-07-31T01:36:35;14.80;99.90
7000;DHT22;3540;53.242;10.408;2023-07-31T01:39:02;14.80;99.90
7000;DHT22;3540;53.242;10.408;2023-07-31T01:41:29;14.80;99.90
7000;DHT22;3540;53.242;10.408;2023-07-31T01:43:55;14.80;99.90
7000;DHT22;3540;53.242;10.408;2023-07-31T01:46:20;14.80;99.90
7000;DHT22;3540;53.242;10.408;2023-07-31T01:48:46;14.80;99.90
7000;DHT22;3540;53.242;10.408;2023-07-31T01:51:12;14.70;99.90
7000;DHT22;3540;53.242;10.408;2023-07-31T01:53:37;14.80;99.90
7000;DHT22;3540;53.242;10.408;2023-07-31T01:56:03;14.70;99.90
7000;DHT22;3540;53.242;10.408;2023-07-31T01:58:29;14.70;99.90
7000;DHT22;3540;53.242;10.408;2023-07-31T02:00:54;14.70;99.90
7000;DHT22;3540;53.242;10.408;2023-07-31T02:03:20;14.70;99.90
7000;DHT22;3540;53.242;10.408;2023-07-31T02:05:46;14.70;99.90
7000;DHT22;3540;53.242;10.408;2023-07-31T02:08:13;14.70;99.90
7000;DHT22;3540;53.242;10.408;2023-07-31T02:10:39;14.60;99.90
7000;DHT22;3540;53.242;10.408;2023-07-31T02:13:04;14.60;99.90
7000;DHT22;3540;53.242;10.408;2023-07-31T02:15:30;14.60;99.90
7000;DHT22;3540;53.242;10.408;2023-07-31T02:17:56;14.60;99.90
7000;DHT22;3540;53.242;10.408;2023-07-31T02:20:21;14.60;99.90
7000;DHT22;3540;53.242;10.408;2023-07-31T02:22:47;14.60;99.90
7000;DHT22;3540;53.242;10.408;2023-07-31T02:25:13;14.60;99.90
7000;DHT22;3540;53.242;10.408;2023-07-31T02:27:39;14.60;99.90
7000;DHT22;3540;53.242;10.408;2023-07-31T02:30:05;14.60;99.90
7000;DHT22;3540;53.242;10.408;2023-07-31T02:32:30;14.60;99.90
7000;DHT22;3540;53.242;10.408;2023-07-31T02:34:56;14.60;99.90
7000;DHT22;3540;53.242;10.408;2023-07-31T02:37:22;14.60;99.90
7000;DHT22;3540;53.242;10.408;2023-07-31T02:39:47;14.60;99.90
7000;DHT22;3540;53.242;10.408;2023-07-31T02:42:14;14.60;99.90
7000;DHT22;3540;53.242;10.408;2023-07-31T02:44:40;14.60;99.90
7000;DHT22;3540;53.242;10.408;2023-07-31T02:47:05;14.60;99.90
7000;DHT22;3540;53.242;10.408;2023-07-31T02:49:31;14.70;99.90
7000;DHT22;3540;53.242;10.408;2023-07-31T02:51:57;14.70;99.90
7000;DHT22;3540;53.242;10.408;2023-07-31T02:54:22;14.70;99.90
7000;DHT22;3540;53.242;10.408;2023-07-31T02:56:48;14.70;99.90
7000;DHT22;3540;53.242;10.408;2023-07-31T02:59:14;14.70;99.90
7000;DHT22;3540;53.242;10.408;2023-07-31T03:01:40;14.70;99.90
7000;DHT22;3540;53.242;10.408;2023-07-31T03:04:06;14.70;99.90
7000;DHT22;3540;53.242;10.408;2023-07-31T03:06:32;14.70;99.90
7000;DHT22;3540;53.242;10.408;2023-07-31T03:08:58;14.70;99.90
7000;DHT22;3540;53.242;10.408;2023-07-31T03:11:23;14.70;99.90
7000;DHT22;3540;53.242;10.408;2023-07-31T03:13:49;14.70;99.90
7000;DHT22;3540;53.242;10.408;2023-07-31T03:16:14;14.80;99.90
7000;DHT22;3540;53.242;10.408;2023-07-31T03:18:40;14.80;99.90
7000;DHT22;3540;53.242;10.408;2023-07-31T03:21:06;14.80;99.90
7000;DHT22;3540;53.242;10.408;2023-07-31T03:23:31;14.80;99.90
7000;DHT22;3540;53.242;10.408;2023-07-31T03:26:01;14.80;99.90
7000;DHT22;3540;53.242;10.408;2023-07-31T03:28:29;14.80;99.90
7000;DHT22;3540;53.242;10.408;2023-07-31T03:30:55;14.80;99.90
7000;DHT22;3540;53.242;10.408;2023-07-31T03:33:20;14.80;99.90
7000;DHT22;3540;53.242;10.408;2023-07-31T03:35:46;14.90;99.90
7000;DHT22;3540;53.242;10.408;2023-07-31T03:38:12;14.90;99.90
7000;DHT22;3540;53.242;10.408;2023-07-31T03:40:38;14.90;99.90
7000;DHT22;3540;53.242;10.408;2023-07-31T03:43:05;14.90;99.90
7000;DHT22;3540;53.242;10.408;2023-07-31T03:45:31;14.90;99.90
7000;DHT22;3540;53.242;10.408;2023-07-31T03:47:56;14.90;99.90
7000;DHT22;3540;53.242;10.408;2023-07-31T03:50:22;14.90;99.90
7000;DHT22;3540;53.242;10.408;2023-07-31T03:52:48;15.00;99.90
7000;DHT22;3540;53.242;10.408;2023-07-31T03:55:14;15.00;99.90
7000;DHT22;3540;53.242;10.408;2023-07-31T03:57:39;15.00;99.90
7000;DHT22;3540;53.242;10.408;2023-07-31T04:00:05;15.00;99.90
7000;DHT22;3540;53.242;10.408;2023-07-31T04:02:31;15.10;99.90
7000;DHT22;3540;53.242;10.408;2023-07-31T04:04:57;15.10;99.90
7000;DHT22;3540;53.242;10.408;2023-07-31T04:07:22;15.10;99.90
7000;DHT22;3540;53.242;10.408;2023-07-31T04:09:48;15.10;99.90
7000;DHT22;3540;53.242;10.408;2023-07-31T04:12:13;15.10;99.90
7000;DHT22;3540;53.242;10.408;2023-07-31T04:14:39;15.00;99.90
7000;DHT22;3540;53.242;10.408;2023-07-31T04:17:05;15.00;99.90
7000;DHT22;3540;53.242;10.408;2023-07-31T04:19:30;15.00;99.90
7000;DHT22;3540;53.242;10.408;2023-07-31T04:21:56;15.00;99.90
7000;DHT22;3540;53.242;10.408;2023-07-31T04:24:22;15.00;99.90
7000;DHT22;3540;53.242;10.408;2023-07-31T04:26:50;14.90;99.90
7000;DHT22;3540;53.242;10.408;2023-07-31T04:29:16;14.90;99.90
7000;DHT22;3540;53.242;10.408;2023-07-31T04:31:41;14.90;99.90
7000;DHT22;3540;53.242;10.408;2023-07-31T04:34:07;14.90;99.90
7000;DHT22;3540;53.242;10.408;2023-07-31T04:36:34;15.00;99.90
7000;DHT22;3540;53.242;10.408;2023-07-31T04:39:00;15.00;99.90
7000;DHT22;3540;53.242;10.408;2023-07-31T04:41:25;15.00;99.90
7000;DHT22;3540;53.242;10.408;2023-07-31T04:43:51;15.00;99.90
7000;DHT22;3540;53.242;10.408;2023-07-31T04:46:17;15.00;99.90
7000;DHT22;3540;53.242;10.408;2023-07-31T04:48:42;14.90;99.90
7000;DHT22;3540;53.242;10.408;2023-07-31T04:51:08;14.90;99.90
7000;DHT22;3540;53.242;10.408;2023-07-31T04:53:35;14.90;99.90
7000;DHT22;3540;53.242;10.408;2023-07-31T04:56:00;14.90;99.90
7000;DHT22;3540;53.242;10.408;2023-07-31T04:58:26;14.90;99.90
7000;DHT22;3540;53.242;10.408;2023-07-31T05:00:52;14.90;99.90
7000;DHT22;3540;53.242;10.408;2023-07-31T05:03:17;14.90;99.90
7000;DHT22;3540;53.242;10.408;2023-07-31T05:05:43;14.90;99.90
7000;DHT22;3540;53.242;10.408;2023-07-31T05:08:09;14.90;99.90
7000;DHT22;3540;53.242;10.408;2023-07-31T05:10:34;14.90;99.90
7000;DHT22;3540;53.242;10.408;2023-07-31T05:13:00;14.90;99.90
7000;DHT22;3540;53.242;10.408;2023-07-31T05:15:26;14.90;99.90
7000;DHT22;3540;53.242;10.408;2023-07-31T05:17:51;14.90;99.90
7000;DHT22;3540;53.242;10.408;2023-07-31T05:20:17;14.90;99.90
7000;DHT22;3540;53.242;10.408;2023-07-31T05:22:43;14.90;99.90
7000;DHT22;3540;53.242;10.408;2023-07-31T05:25:09;15.00;99.90
7000;DHT22;3540;53.242;10.408;2023-07-31T05:27:34;15.00;99.90
7000;DHT22;3540;53.242;10.408;2023-07-31T05:30:00;15.00;99.90
7000;DHT22;3540;53.242;10.408;2023-07-31T05:32:26;15.00;99.90
7000;DHT22;3540;53.242;10.408;2023-07-31T05:34:52;15.10;99.90
7000;DHT22;3540;53.242;10.408;2023-07-31T05:37:18;15.10;99.90
7000;DHT22;3540;53.242;10.408;2023-07-31T05:39:44;15.20;99.90
7000;DHT22;3540;53.242;10.408;2023-07-31T05:42:10;15.20;99.90
7000;DHT22;3540;53.242;10.408;2023-07-31T05:44:35;15.30;99.90
7000;DHT22;3540;53.242;10.408;2023-07-31T05:47:01;15.30;99.90
7000;DHT22;3540;53.242;10.408;2023-07-31T05:49:27;15.20;99.90
7000;DHT22;3540;53.242;10.408;2023-07-31T05:51:52;15.30;99.90
7000;DHT22;3540;53.242;10.408;2023-07-31T05:54:18;15.30;99.90
7000;DHT22;3540;53.242;10.408;2023-07-31T05:56:44;15.40;99.90
7000;DHT22;3540;53.242;10.408;2023-07-31T05:59:11;15.50;99.90
7000;DHT22;3540;53.242;10.408;2023-07-31T06:01:37;15.50;99.90
7000;DHT22;3540;53.242;10.408;2023-07-31T06:04:03;15.50;99.90
7000;DHT22;3540;53.242;10.408;2023-07-31T06:06:29;15.50;99.90
7000;DHT22;3540;53.242;10.408;2023-07-31T06:08:55;15.60;99.90
7000;DHT22;3540;53.242;10.408;2023-07-31T06:11:21;15.70;99.90
7000;DHT22;3540;53.242;10.408;2023-07-31T06:13:47;15.70;99.90
7000;DHT22;3540;53.242;10.408;2023-07-31T06:16:14;15.70;99.90
7000;DHT22;3540;53.242;10.408;2023-07-31T06:18:41;15.70;99.90
7000;DHT22;3540;53.242;10.408;2023-07-31T06:21:07;15.80;99.90
7000;DHT22;3540;53.242;10.408;2023-07-31T06:23:33;15.80;99.90
7000;DHT22;3540;53.242;10.408;2023-07-31T06:25:58;15.80;99.90
7000;DHT22;3540;53.242;10.408;2023-07-31T06:28:28;15.90;99.90
7000;DHT22;3540;53.242;10.408;2023-07-31T06:30:55;16.00;99.90
7000;DHT22;3540;53.242;10.408;2023-07-31T06:33:20;16.10;99.90
7000;DHT22;3540;53.242;10.408;2023-07-31T06:35:46;16.10;99.90
7000;DHT22;3540;53.242;10.408;2023-07-31T06:38:12;16.20;99.90
7000;DHT22;3540;53.242;10.408;2023-07-31T06:40:37;16.10;99.90
7000;DHT22;3540;53.242;10.408;2023-07-31T06:43:03;16.10;99.90
7000;DHT22;3540;53.242;10.408;2023-07-31T06:45:37;16.00;99.90
7000;DHT22;3540;53.242;10.408;2023-07-31T06:48:03;16.00;99.90
7000;DHT22;3540;53.242;10.408;2023-07-31T06:50:32;16.20;99.90
7000;DHT22;3540;53.242;10.408;2023-07-31T06:52:58;16.20;99.90
7000;DHT22;3540;53.242;10.408;2023-07-31T06:55:24;16.30;99.90
7000;DHT22;3540;53.242;10.408;2023-07-31T06:57:52;16.20;99.90
7000;DHT22;3540;53.242;10.408;2023-07-31T07:00:18;16.40;99.90
7000;DHT22;3540;53.242;10.408;2023-07-31T07:02:44;16.40;99.90
7000;DHT22;3540;53.242;10.408;2023-07-31T07:05:13;16.50;99.90
7000;DHT22;3540;53.242;10.408;2023-07-31T07:07:38;16.60;99.90
7000;DHT22;3540;53.242;10.408;2023-07-31T07:10:04;16.70;99.90
7000;DHT22;3540;53.242;10.408;2023-07-31T07:12:31;16.80;99.90
7000;DHT22;3540;53.242;10.408;2023-07-31T07:14:57;16.80;99.90
7000;DHT22;3540;53.242;10.408;2023-07-31T07:17:23;16.90;99.90
7000;DHT22;3540;53.242;10.408;2023-07-31T07:19:49;17.00;99.90
7000;DHT22;3540;53.242;10.408;2023-07-31T07:22:15;16.80;99.90
7000;DHT22;3540;53.242;10.408;2023-07-31T07:24:41;16.90;99.90
7000;DHT22;3540;53.242;10.408;2023-07-31T07:27:07;16.90;99.90
7000;DHT22;3540;53.242;10.408;2023-07-31T07:29:34;16.90;99.90
7000;DHT22;3540;53.242;10.408;2023-07-31T07:32:00;16.90;99.90
7000;DHT22;3540;53.242;10.408;2023-07-31T07:34:27;16.80;99.90
7000;DHT22;3540;53.242;10.408;2023-07-31T07:36:53;16.70;99.90
7000;DHT22;3540;53.242;10.408;2023-07-31T07:39:19;16.70;99.90
7000;DHT22;3540;53.242;10.408;2023-07-31T07:41:44;16.60;99.90
7000;DHT22;3540;53.242;10.408;2023-07-31T07:44:10;16.40;99.90
7000;DHT22;3540;53.242;10.408;2023-07-31T07:46:36;16.50;99.90
7000;DHT22;3540;53.242;10.408;2023-07-31T07:49:01;16.50;99.90
7000;DHT22;3540;53.242;10.408;2023-07-31T07:51:27;16.50;99.90
7000;DHT22;3540;53.242;10.408;2023-07-31T07:53:53;16.60;99.90
7000;DHT22;3540;53.242;10.408;2023-07-31T07:56:19;16.50;99.90
7000;DHT22;3540;53.242;10.408;2023-07-31T07:58:44;16.50;99.90
7000;DHT22;3540;53.242;10.408;2023-07-31T08:01:13;16.50;99.90
7000;DHT22;3540;53.242;10.408;2023-07-31T08:03:39;16.50;99.90
7000;DHT22;3540;53.242;10.408;2023-07-31T08:06:04;16.50;99.90
7000;DHT22;3540;53.242;10.408;2023-07-31T08:08:30;16.50;99.90
7000;DHT22;3540;53.242;10.408;2023-07-31T08:10:56;16.50;99.90
7000;DHT22;3540;53.242;10.408;2023-07-31T08:13:21;16.50;99.90
7000;DHT22;3540;53.242;10.408;2023-07-31T08:15:47;16.50;99.90
7000;DHT22;3540;53.242;10.408;2023-07-31T08:18:12;16.60;99.90
7000;DHT22;3540;53.242;10.408;2023-07-31T08:20:38;16.60;99.90
7000;DHT22;3540;53.242;10.408;2023-07-31T08:23:04;16.50;99.90
7000;DHT22;3540;53.242;10.408;2023-07-31T08:25:30;16.60;99.90
7000;DHT22;3540;53.242;10.408;2023-07-31T08:27:55;16.70;99.90
7000;DHT22;3540;53.242;10.408;2023-07-31T08:30:21;16.60;99.90
7000;DHT22;3540;53.242;10.408;2023-07-31T08:32:47;16.70;99.90
7000;DHT22;3540;53.242;10.408;2023-07-31T08:35:13;16.80;99.90
7000;DHT22;3540;53.242;10.408;2023-07-31T08:37:39;17.00;99.90
7000;DHT22;3540;53.242;10.408;2023-07-31T08:40:05;16.90;99.90
7000;DHT22;3540;53.242;10.408;2023-07-31T08:42:31;16.80;99.90
7000;DHT22;3540;53.242;10.408;2023-07-31T08:44:59;16.80;99.90
7000;DHT22;3540;53.242;10.408;2023-07-31T08:47:25;16.70;99.90
7000;DHT22;3540;53.242;10.408;2023-07-31T08:49:53;16.60;99.90
7000;DHT22;3540;53.242;10.408;2023-07-31T08:52:19;16.70;99.90
7000;DHT22;3540;53.242;10.408;2023-07-31T08:54:45;16.60;99.90
7000;DHT22;3540;53.242;10.408;2023-07-31T08:57:13;16.50;99.90
7000;DHT22;3540;53.242;10.408;2023-07-31T08:59:39;16.60;99.90
7000;DHT22;3540;53.242;10.408;2023-07-31T09:02:08;16.60;99.90
7000;DHT22;3540;53.242;10.408;2023-07-31T09:04:34;16.60;99.90
7000;DHT22;3540;53.242;10.408;2023-07-31T09:07:01;16.70;99.90
7000;DHT22;3540;53.242;10.408;2023-07-31T09:09:29;16.60;99.90
7000;DHT22;3540;53.242;10.408;2023-07-31T09:11:56;16.60;99.90
7000;DHT22;3540;53.242;10.408;2023-07-31T09:14:25;16.70;99.90
7000;DHT22;3540;53.242;10.408;2023-07-31T09:16:58;16.70;99.90
7000;DHT22;3540;53.242;10.408;2023-07-31T09:19:26;16.80;99.90
7000;DHT22;3540;53.242;10.408;2023-07-31T09:21:52;16.80;99.90
7000;DHT22;3540;53.242;10.408;2023-07-31T09:24:29;16.80;99.90
7000;DHT22;3540;53.242;10.408;2023-07-31T09:26:56;16.80;99.90
7000;DHT22;3540;53.242;10.408;2023-07-31T09:29:23;16.90;99.90
7000;DHT22;3540;53.242;10.408;2023-07-31T09:31:49;16.90;99.90
7000;DHT22;3540;53.242;10.408;2023-07-31T09:34:15;16.90;99.90
7000;DHT22;3540;53.242;10.408;2023-07-31T09:36:49;17.00;99.90
7000;DHT22;3540;53.242;10.408;2023-07-31T09:39:15;17.00;99.90
7000;DHT22;3540;53.242;10.408;2023-07-31T09:41:44;17.10;99.90
7000;DHT22;3540;53.242;10.408;2023-07-31T09:44:11;17.20;99.90
7000;DHT22;3540;53.242;10.408;2023-07-31T09:46:37;17.30;99.90
7000;DHT22;3540;53.242;10.408;2023-07-31T09:49:13;17.40;99.90
7000;DHT22;3540;53.242;10.408;2023-07-31T09:51:40;17.30;99.90
7000;DHT22;3540;53.242;10.408;2023-07-31T09:56:42;17.30;99.90
7000;DHT22;3540;53.242;10.408;2023-07-31T09:59:11;17.50;99.90
7000;DHT22;3540;53.242;10.408;2023-07-31T10:01:38;17.70;99.90
7000;DHT22;3540;53.242;10.408;2023-07-31T10:04:05;17.70;99.90
7000;DHT22;3540;53.242;10.408;2023-07-31T10:06:32;17.60;99.90
7000;DHT22;3540;53.242;10.408;2023-07-31T10:08:59;17.50;99.90
7000;DHT22;3540;53.242;10.408;2023-07-31T10:11:27;17.50;99.90
7000;DHT22;3540;53.242;10.408;2023-07-31T10:13:53;17.50;99.90
7000;DHT22;3540;53.242;10.408;2023-07-31T10:16:20;17.60;99.90
7000;DHT22;3540;53.242;10.408;2023-07-31T10:18:47;17.90;99.90
7000;DHT22;3540;53.242;10.408;2023-07-31T10:21:14;17.90;99.90
7000;DHT22;3540;53.242;10.408;2023-07-31T10:23:41;18.00;99.90
7000;DHT22;3540;53.242;10.408;2023-07-31T10:26:07;18.00;99.90
7000;DHT22;3540;53.242;10.408;2023-07-31T10:28:34;18.00;99.90
7000;DHT22;3540;53.242;10.408;2023-07-31T10:31:02;17.90;99.90
7000;DHT22;3540;53.242;10.408;2023-07-31T10:33:28;18.00;99.90
7000;DHT22;3540;53.242;10.408;2023-07-31T10:36:14;18.10;99.90
7000;DHT22;3540;53.242;10.408;2023-07-31T10:38:41;18.40;99.90
7000;DHT22;3540;53.242;10.408;2023-07-31T10:41:09;18.60;99.90
7000;DHT22;3540;53.242;10.408;2023-07-31T10:43:37;18.40;99.90
7000;DHT22;3540;53.242;10.408;2023-07-31T10:46:11;18.10;99.90
7000;DHT22;3540;53.242;10.408;2023-07-31T10:48:39;18.10;99.90
7000;DHT22;3540;53.242;10.408;2023-07-31T10:51:11;18.00;99.90
7000;DHT22;3540;53.242;10.408;2023-07-31T10:53:41;18.00;99.90
7000;DHT22;3540;53.242;10.408;2023-07-31T10:56:09;17.90;99.90
7000;DHT22;3540;53.242;10.408;2023-07-31T10:58:37;17.80;99.90
7000;DHT22;3540;53.242;10.408;2023-07-31T11:01:04;17.90;99.90
7000;DHT22;3540;53.242;10.408;2023-07-31T11:03:47;17.90;99.90
7000;DHT22;3540;53.242;10.408;2023-07-31T11:06:14;18.00;99.90
7000;DHT22;3540;53.242;10.408;2023-07-31T11:08:45;18.20;99.90
7000;DHT22;3540;53.242;10.408;2023-07-31T11:11:12;18.20;99.90
7000;DHT22;3540;53.242;10.408;2023-07-31T11:16:10;18.00;99.90
7000;DHT22;3540;53.242;10.408;2023-07-31T11:18:39;18.00;99.90
7000;DHT22;3540;53.242;10.408;2023-07-31T11:21:05;18.00;99.90
7000;DHT22;3540;53.242;10.408;2023-07-31T11:23:31;18.00;99.90
7000;DHT22;3540;53.242;10.408;2023-07-31T11:26:00;17.90;99.90
7000;DHT22;3540;53.242;10.408;2023-07-31T11:28:34;17.70;99.90
7000;DHT22;3540;53.242;10.408;2023-07-31T11:31:01;17.80;99.90
7000;DHT22;3540;53.242;10.408;2023-07-31T11:33:27;18.00;99.90
7000;DHT22;3540;53.242;10.408;2023-07-31T11:35:53;18.10;99.90
7000;DHT22;3540;53.242;10.408;2023-07-31T11:38:27;18.20;99.90
7000;DHT22;3540;53.242;10.408;2023-07-31T11:40:55;18.20;99.90
7000;DHT22;3540;53.242;10.408;2023-07-31T11:43:21;18.20;99.90
7000;DHT22;3540;53.242;10.408;2023-07-31T11:45:49;18.10;99.90
7000;DHT22;3540;53.242;10.408;2023-07-31T11:48:26;18.20;99.90
7000;DHT22;3540;53.242;10.408;2023-07-31T11:50:58;18.40;99.90
7000;DHT22;3540;53.242;10.408;2023-07-31T11:53:35;18.40;99.90
7000;DHT22;3540;53.242;10.408;2023-07-31T11:56:02;18.50;99.90
7000;DHT22;3540;53.242;10.408;2023-07-31T11:58:31;18.60;99.90
7000;DHT22;3540;53.242;10.408;2023-07-31T12:00:59;18.60;99.90
7000;DHT22;3540;53.242;10.408;2023-07-31T12:03:26;18.60;99.90
7000;DHT22;3540;53.242;10.408;2023-07-31T12:05:53;18.60;99.90
7000;DHT22;3540;53.242;10.408;2023-07-31T12:08:21;18.40;99.90
7000;DHT22;3540;53.242;10.408;2023-07-31T12:10:50;18.30;99.90
7000;DHT22;3540;53.242;10.408;2023-07-31T12:13:25;18.30;99.90
7000;DHT22;3540;53.242;10.408;2023-07-31T12:15:56;18.30;99.90
7000;DHT22;3540;53.242;10.408;2023-07-31T12:18:24;18.30;99.90
7000;DHT22;3540;53.242;10.408;2023-07-31T12:20:58;18.20;99.90
7000;DHT22;3540;53.242;10.408;2023-07-31T12:23:29;18.20;99.90
7000;DHT22;3540;53.242;10.408;2023-07-31T12:26:08;18.20;99.90
7000;DHT22;3540;53.242;10.408;2023-07-31T12:28:36;18.20;99.90
7000;DHT22;3540;53.242;10.408;2023-07-31T12:31:04;18.20;99.90
7000;DHT22;3540;53.242;10.408;2023-07-31T12:33:32;18.30;99.90
7000;DHT22;3540;53.242;10.408;2023-07-31T12:36:00;18.40;99.90
7000;DHT22;3540;53.242;10.408;2023-07-31T12:38:26;18.40;99.90
7000;DHT22;3540;53.242;10.408;2023-07-31T12:40:51;18.30;99.90
7000;DHT22;3540;53.242;10.408;2023-07-31T12:43:17;18.30;99.90
7000;DHT22;3540;53.242;10.408;2023-07-31T12:45:43;18.30;99.90
7000;DHT22;3540;53.242;10.408;2023-07-31T12:48:08;18.10;99.90
7000;DHT22;3540;53.242;10.408;2023-07-31T12:50:34;18.10;99.90
7000;DHT22;3540;53.242;10.408;2023-07-31T12:53:02;18.10;99.90
7000;DHT22;3540;53.242;10.408;2023-07-31T12:55:29;18.10;99.90
7000;DHT22;3540;53.242;10.408;2023-07-31T12:57:55;18.10;99.90
7000;DHT22;3540;53.242;10.408;2023-07-31T13:00:21;18.20;99.90
7000;DHT22;3540;53.242;10.408;2023-07-31T13:02:47;18.20;99.90
7000;DHT22;3540;53.242;10.408;2023-07-31T13:05:12;18.10;99.90
7000;DHT22;3540;53.242;10.408;2023-07-31T13:07:39;18.10;99.90
7000;DHT22;3540;53.242;10.408;2023-07-31T13:10:05;18.10;99.90
7000;DHT22;3540;53.242;10.408;2023-07-31T13:12:31;18.00;99.90
7000;DHT22;3540;53.242;10.408;2023-07-31T13:14:57;17.90;99.90
7000;DHT22;3540;53.242;10.408;2023-07-31T13:17:23;17.80;99.90
7000;DHT22;3540;53.242;10.408;2023-07-31T13:19:48;17.90;99.90
7000;DHT22;3540;53.242;10.408;2023-07-31T13:22:14;18.00;99.90
7000;DHT22;3540;53.242;10.408;2023-07-31T13:24:40;18.00;99.90
7000;DHT22;3540;53.242;10.408;2023-07-31T13:27:05;17.90;99.90
7000;DHT22;3540;53.242;10.408;2023-07-31T13:29:31;18.00;99.90
7000;DHT22;3540;53.242;10.408;2023-07-31T13:31:57;17.90;99.90
7000;DHT22;3540;53.242;10.408;2023-07-31T13:34:23;17.90;99.90
7000;DHT22;3540;53.242;10.408;2023-07-31T13:36:48;17.90;99.90
7000;DHT22;3540;53.242;10.408;2023-07-31T13:39:14;18.00;99.90
7000;DHT22;3540;53.242;10.408;2023-07-31T13:41:40;18.10;99.90
7000;DHT22;3540;53.242;10.408;2023-07-31T13:44:05;18.10;99.90
7000;DHT22;3540;53.242;10.408;2023-07-31T13:46:31;18.10;99.90
7000;DHT22;3540;53.242;10.408;2023-07-31T13:48:58;18.10;99.90
7000;DHT22;3540;53.242;10.408;2023-07-31T13:51:25;18.10;99.90
7000;DHT22;3540;53.242;10.408;2023-07-31T13:53:51;17.90;99.90
7000;DHT22;3540;53.242;10.408;2023-07-31T13:56:16;17.90;99.90
7000;DHT22;3540;53.242;10.408;2023-07-31T13:58:42;17.90;99.90
7000;DHT22;3540;53.242;10.408;2023-07-31T14:01:07;17.90;99.90
7000;DHT22;3540;53.242;10.408;2023-07-31T14:03:33;17.90;99.90
7000;DHT22;3540;53.242;10.408;2023-07-31T14:05:59;17.80;99.90
7000;DHT22;3540;53.242;10.408;2023-07-31T14:08:24;17.90;99.90
7000;DHT22;3540;53.242;10.408;2023-07-31T14:10:50;17.80;99.90
7000;DHT22;3540;53.242;10.408;2023-07-31T14:13:16;17.80;99.90
7000;DHT22;3540;53.242;10.408;2023-07-31T14:15:44;17.80;99.90
7000;DHT22;3540;53.242;10.408;2023-07-31T14:18:10;17.80;99.90
7000;DHT22;3540;53.242;10.408;2023-07-31T14:20:36;17.80;99.90
7000;DHT22;3540;53.242;10.408;2023-07-31T14:23:04;17.80;99.90
7000;DHT22;3540;53.242;10.408;2023-07-31T14:28:45;17.80;99.90
7000;DHT22;3540;53.242;10.408;2023-07-31T14:31:11;17.80;99.90
7000;DHT22;3540;53.242;10.408;2023-07-31T14:33:37;17.80;99.90
7000;DHT22;3540;53.242;10.408;2023-07-31T14:36:03;17.90;99.90
7000;DHT22;3540;53.242;10.408;2023-07-31T14:38:29;17.90;99.90
7000;DHT22;3540;53.242;10.408;2023-07-31T14:40:54;18.00;99.90
7000;DHT22;3540;53.242;10.408;2023-07-31T14:43:20;18.00;99.90
7000;DHT22;3540;53.242;10.408;2023-07-31T14:45:45;18.10;99.90
7000;DHT22;3540;53.242;10.408;2023-07-31T14:48:12;18.20;99.90
7000;DHT22;3540;53.242;10.408;2023-07-31T14:50:38;18.00;99.90
7000;DHT22;3540;53.242;10.408;2023-07-31T14:53:03;18.10;99.90
7000;DHT22;3540;53.242;10.408;2023-07-31T14:55:29;18.10;99.90
7000;DHT22;3540;53.242;10.408;2023-07-31T14:57:55;18.00;99.90
7000;DHT22;3540;53.242;10.408;2023-07-31T15:00:20;17.90;99.90
7000;DHT22;3540;53.242;10.408;2023-07-31T15:02:46;17.80;99.90
7000;DHT22;3540;53.242;10.408;2023-07-31T15:05:12;17.90;99.90
7000;DHT22;3540;53.242;10.408;2023-07-31T15:07:37;17.90;99.90
7000;DHT22;3540;53.242;10.408;2023-07-31T15:10:03;18.00;99.90
7000;DHT22;3540;53.242;10.408;2023-07-31T15:12:29;17.90;99.90
7000;DHT22;3540;53.242;10.408;2023-07-31T15:14:55;17.90;99.90
7000;DHT22;3540;53.242;10.408;2023-07-31T15:17:21;17.90;99.90
7000;DHT22;3540;53.242;10.408;2023-07-31T15:19:47;17.90;99.90
7000;DHT22;3540;53.242;10.408;2023-07-31T15:22:12;17.90;99.90
7000;DHT22;3540;53.242;10.408;2023-07-31T15:24:38;17.90;99.90
7000;DHT22;3540;53.242;10.408;2023-07-31T15:27:04;17.90;99.90
7000;DHT22;3540;53.242;10.408;2023-07-31T15:29:30;17.90;99.90
7000;DHT22;3540;53.242;10.408;2023-07-31T15:31:56;17.90;99.90
7000;DHT22;3540;53.242;10.408;2023-07-31T15:34:21;17.90;99.90
7000;DHT22;3540;53.242;10.408;2023-07-31T15:36:47;18.00;99.90
7000;DHT22;3540;53.242;10.408;2023-07-31T15:39:13;18.00;99.90
7000;DHT22;3540;53.242;10.408;2023-07-31T15:41:39;18.00;99.90
7000;DHT22;3540;53.242;10.408;2023-07-31T15:44:05;18.00;99.90
7000;DHT22;3540;53.242;10.408;2023-07-31T15:46:31;18.10;99.90
7000;DHT22;3540;53.242;10.408;2023-07-31T15:48:56;18.20;99.90
7000;DHT22;3540;53.242;10.408;2023-07-31T15:51:23;18.20;99.90